Ana Sayfa
METAR-TAF:

METAR-TAF

Havaalanları :

Kunming, Çin

Enlem: 25-01N, Boylam: 102-41E, yükseklik: 1892 m

Güncel hava durumu gözlemi

Rapor saat 09:00 UTC de 43 dakika önce yapıldı.
Rüzgar güneybatıdan 12 kt
Sıcaklık 22°C
Nem 73%
Basınç 1013 hPa
Görüş mesafesi 10 km veya daha fazla
2600 ft yükseklikte parçalı bulutlu
4000 ft yükseklikte parçalı çok bulutlu

METAR: ZPPP 260900Z 22006MPS 9999 SCT026 BKN040 22/17 Q1013 NOSIG

Saat: 17:43 (09:43 UTC)

Tahmin

Rapor saat 01:24 UTC de 8 saat ve 19 dakika önce yapıldı.
Ayın 26'si saat 06 UTC'den ayın 27'si saat 06 UTC'ye kadar geçerli Tahmin
Rüzgar güneybatıdan 8 kt
Görüş mesafesi: 6000 m
2300 ft yükseklikte parçalı bulutlu
3300 ft yükseklikte parçalı çok bulutlu

TAF: ZPPP 260124Z 2606/2706 22004MPS 6000 SCT023 BKN033 TX22/2608Z TN16/2623Z

4.000'den fazla havaalanı için hava durumu gözlemleri ve tahminleri (METAR ve TAF raporları).

Kullanılabilir istasyonlar harita üzerinde sarı ve kırmızı noktalarla gösterilir.

İstasyonun adını görmek için fareyi noktanın üzerinde gezdirin.

Sonrasında hava gözlem ve tahminlerini görmek için tıklayın.

Haritayı değiştirmek için: yaklaştırmak için siyah artı işaretli yeşil düğmeye ve uzaklaştırmak için de eksi işaretli düğmeye hızla tıklayın; bitişik haritalar için yeşil okları kullanın.


METAR-TAF: